Time;durP1;ratioP1;P1;durP2;ratioP2;P2;SDS_P1;SDS_P2;PMS_P1;PMS_P2;Temp;Humidity;BMP_temperature;BMP_pressure;BME280_temperature;BME280_humidity;BME280_pressure;Samples;Min_cycle;Max_cycle;Signal;HPM_P1;HPM_P2
2022/02/26 00:02:24;;;;;;;8.13;2.70;;;;;;;;;;5028122;28;20281;-67
2022/02/26 00:04:53;;;;;;;10.68;2.60;;;;;;;;;;5032696;28;20258;-68
2022/02/26 00:07:20;;;;;;;7.60;1.30;;;;;;;;;;5031452;28;20253;-68
2022/02/26 00:09:47;;;;;;;3.75;1.38;;;;;;;;;;5031976;28;20246;-69
2022/02/26 00:12:14;;;;;;;2.70;1.23;;;;;;;;;;5025830;28;20189;-68
2022/02/26 00:14:42;;;;;;;5.53;1.50;;;;;;;;;;5032043;28;20255;-68
2022/02/26 00:17:09;;;;;;;3.53;1.20;;;;;;;;;;5023137;28;20277;-68
2022/02/26 00:19:36;;;;;;;3.50;1.45;;;;;;;;;;5014215;28;20223;-68
2022/02/26 00:22:05;;;;;;;3.45;1.50;;;;;;;;;;5021219;28;20257;-67
2022/02/26 00:24:32;;;;;;;4.07;1.50;;;;;;;;;;5034002;28;20195;-68
2022/02/26 00:26:59;;;;;;;8.80;2.90;;;;;;;;;;5025703;28;20301;-72
2022/02/26 00:29:27;;;;;;;6.65;2.90;;;;;;;;;;5026935;28;20215;-68
2022/02/26 00:31:54;;;;;;;7.13;1.52;;;;;;;;;;5026471;28;20188;-68
2022/02/26 00:34:22;;;;;;;6.70;1.65;;;;;;;;;;5013428;28;20195;-67
2022/02/26 00:36:49;;;;;;;2.72;1.20;;;;;;;;;;5015538;28;20284;-67
2022/02/26 00:39:17;;;;;;;8.82;1.88;;;;;;;;;;5033087;28;20294;-68
2022/02/26 00:41:45;;;;;;;8.38;1.73;;;;;;;;;;5031459;28;20191;-68
2022/02/26 00:44:17;;;;;;;4.68;1.65;;;;;;;;;;5013381;28;20227;-68
2022/02/26 00:46:45;;;;;;;3.40;2.00;;;;;;;;;;5013735;28;20705;-68
2022/02/26 00:51:57;;;;;;;5.50;1.52;;;;;;;;;;5026947;28;20210;-68
2022/02/26 00:54:26;;;;;;;5.88;1.65;;;;;;;;;;5033085;28;20317;-67
2022/02/26 00:56:53;;;;;;;5.60;1.30;;;;;;;;;;5019621;28;20216;-68
2022/02/26 00:59:21;;;;;;;3.83;1.10;;;;;;;;;;5012998;28;20274;-68
2022/02/26 01:01:48;;;;;;;6.32;2.05;;;;;;;;;;5024211;28;20266;-68
2022/02/26 01:04:15;;;;;;;37.47;4.95;;;;;;;;;;5032763;28;20198;-68
2022/02/26 01:06:42;;;;;;;4.78;2.03;;;;;;;;;;5022079;28;20235;-68
2022/02/26 01:09:10;;;;;;;5.80;2.15;;;;;;;;;;5013095;28;20254;-68
2022/02/26 01:11:38;;;;;;;2.40;1.33;;;;;;;;;;5020917;28;20701;-68
2022/02/26 01:14:06;;;;;;;4.30;1.63;;;;;;;;;;5023874;28;20746;-68
2022/02/26 01:16:33;;;;;;;3.35;1.80;;;;;;;;;;5012761;28;20257;-68
2022/02/26 01:19:01;;;;;;;6.90;1.55;;;;;;;;;;5018312;28;20594;-67
2022/02/26 01:21:28;;;;;;;5.70;2.35;;;;;;;;;;5032989;28;20248;-67
2022/02/26 01:23:55;;;;;;;6.15;5.28;;;;;;;;;;5026215;28;20180;-67
2022/02/26 01:26:23;;;;;;;8.52;2.13;;;;;;;;;;5012914;28;20195;-68
2022/02/26 01:28:51;;;;;;;5.50;2.15;;;;;;;;;;5015718;28;20258;-67
2022/02/26 01:31:19;;;;;;;3.20;1.65;;;;;;;;;;5032776;28;20296;-68
2022/02/26 01:33:47;;;;;;;5.55;1.85;;;;;;;;;;5028368;28;20279;-70
2022/02/26 01:36:14;;;;;;;3.60;2.30;;;;;;;;;;5012769;28;20295;-68
2022/02/26 01:38:41;;;;;;;4.13;2.13;;;;;;;;;;5013667;28;20205;-68
2022/02/26 01:41:09;;;;;;;7.63;1.98;;;;;;;;;;5032464;28;20619;-67
2022/02/26 01:43:36;;;;;;;4.43;2.30;;;;;;;;;;5030872;28;20615;-68
2022/02/26 01:46:06;;;;;;;3.78;1.52;;;;;;;;;;5012691;28;20287;-67
2022/02/26 01:48:35;;;;;;;3.47;2.03;;;;;;;;;;5020816;28;20215;-68
2022/02/26 01:51:02;;;;;;;5.93;2.33;;;;;;;;;;5032447;28;20191;-68
2022/02/26 01:53:29;;;;;;;3.97;2.28;;;;;;;;;;5023749;28;20598;-68
2022/02/26 01:55:56;;;;;;;4.55;2.08;;;;;;;;;;5012277;28;20903;-68
2022/02/26 01:58:24;;;;;;;4.93;2.10;;;;;;;;;;5018319;28;20273;-68
2022/02/26 02:00:51;;;;;;;5.45;2.45;;;;;;;;;;5031692;28;20274;-67
2022/02/26 02:03:19;;;;;;;3.30;2.20;;;;;;;;;;5029227;28;20233;-68
2022/02/26 02:05:47;;;;;;;11.20;3.22;;;;;;;;;;5032025;28;20634;-67
2022/02/26 02:08:14;;;;;;;9.02;2.20;;;;;;;;;;5027394;28;20196;-68
2022/02/26 02:10:43;;;;;;;11.13;2.50;;;;;;;;;;5012090;28;20191;-67
2022/02/26 02:13:10;;;;;;;13.85;2.15;;;;;;;;;;5014445;28;20404;-68
2022/02/26 02:15:38;;;;;;;4.35;2.45;;;;;;;;;;5032146;28;20191;-68
2022/02/26 02:18:07;;;;;;;10.57;2.40;;;;;;;;;;5028901;28;20238;-71
2022/02/26 02:20:36;;;;;;;7.85;2.90;;;;;;;;;;5032077;28;20191;-68
2022/02/26 02:23:05;;;;;;;5.40;1.83;;;;;;;;;;5030145;28;20278;-68
2022/02/26 02:25:36;;;;;;;7.45;2.42;;;;;;;;;;5012612;28;20219;-67
2022/02/26 02:28:04;;;;;;;8.05;2.45;;;;;;;;;;5012383;28;20723;-68
2022/02/26 02:30:32;;;;;;;3.88;1.85;;;;;;;;;;5031967;28;20225;-68
2022/02/26 02:33:03;;;;;;;4.85;2.50;;;;;;;;;;5031904;28;20286;-68
2022/02/26 02:35:30;;;;;;;4.20;1.83;;;;;;;;;;5013178;28;20196;-67
2022/02/26 02:37:59;;;;;;;4.80;2.40;;;;;;;;;;5015572;28;20195;-67
2022/02/26 02:40:27;;;;;;;5.40;2.35;;;;;;;;;;5025444;28;20273;-67
2022/02/26 02:42:55;;;;;;;10.13;3.75;;;;;;;;;;5035815;28;20255;-68
2022/02/26 02:45:22;;;;;;;3.85;2.28;;;;;;;;;;5025677;28;20184;-68
2022/02/26 02:47:50;;;;;;;4.28;1.90;;;;;;;;;;5015734;28;20227;-67
2022/02/26 02:50:17;;;;;;;4.85;2.25;;;;;;;;;;5023182;28;20302;-67
2022/02/26 02:52:45;;;;;;;5.80;2.30;;;;;;;;;;5034274;28;20226;-68
2022/02/26 02:55:14;;;;;;;4.13;2.00;;;;;;;;;;5027514;28;20223;-68
2022/02/26 02:57:43;;;;;;;6.75;2.50;;;;;;;;;;5015479;28;20655;-67
2022/02/26 03:00:11;;;;;;;8.80;2.70;;;;;;;;;;5020542;28;20559;-68
2022/02/26 03:02:38;;;;;;;9.25;2.70;;;;;;;;;;5035558;28;20237;-68
2022/02/26 03:05:06;;;;;;;13.57;2.75;;;;;;;;;;5029741;28;20276;-67
2022/02/26 03:07:33;;;;;;;5.80;2.97;;;;;;;;;;5015447;28;20191;-67
2022/02/26 03:10:00;;;;;;;4.85;2.47;;;;;;;;;;5018217;28;20333;-67
2022/02/26 03:12:28;;;;;;;4.22;2.60;;;;;;;;;;5035299;28;20226;-67
2022/02/26 03:14:56;;;;;;;6.00;2.90;;;;;;;;;;5031910;28;20346;-69
2022/02/26 03:17:24;;;;;;;4.43;2.45;;;;;;;;;;5015332;28;20278;-68
2022/02/26 03:19:51;;;;;;;4.55;2.75;;;;;;;;;;5015942;28;20238;-67
2022/02/26 03:22:18;;;;;;;7.40;3.85;;;;;;;;;;5035224;28;20309;-68
2022/02/26 03:24:45;;;;;;;5.88;2.67;;;;;;;;;;5034145;28;20654;-74
2022/02/26 03:27:13;;;;;;;6.07;2.72;;;;;;;;;;5026381;28;20697;-67
2022/02/26 03:29:40;;;;;;;5.28;2.92;;;;;;;;;;5014485;28;20281;-68
2022/02/26 03:32:10;;;;;;;6.10;3.35;;;;;;;;;;5015180;28;20192;-68
2022/02/26 03:34:37;;;;;;;9.48;3.90;;;;;;;;;;5032600;28;20638;-68
2022/02/26 03:37:05;;;;;;;3.90;2.90;;;;;;;;;;5034914;28;20267;-67
2022/02/26 03:39:33;;;;;;;12.88;3.20;;;;;;;;;;5017353;28;20234;-67
2022/02/26 03:42:01;;;;;;;7.20;3.05;;;;;;;;;;5014792;28;20188;-68
2022/02/26 03:44:28;;;;;;;6.78;3.40;;;;;;;;;;5029970;28;20250;-67
2022/02/26 03:46:56;;;;;;;6.65;2.40;;;;;;;;;;5023372;28;20187;-68
2022/02/26 03:49:25;;;;;;;6.18;2.90;;;;;;;;;;5014874;28;20257;-67
2022/02/26 03:51:52;;;;;;;5.03;2.75;;;;;;;;;;5022655;28;20191;-67
2022/02/26 03:54:20;;;;;;;8.00;3.90;;;;;;;;;;5034314;28;20237;-67
2022/02/26 03:56:47;;;;;;;4.60;2.63;;;;;;;;;;5025526;28;20192;-67
2022/02/26 03:59:15;;;;;;;4.70;1.90;;;;;;;;;;5014354;28;20290;-68
2022/02/26 04:01:42;;;;;;;6.03;2.90;;;;;;;;;;5020699;28;20238;-67
2022/02/26 04:04:09;;;;;;;5.47;3.55;;;;;;;;;;5034631;28;20312;-68
2022/02/26 04:06:38;;;;;;;5.75;2.47;;;;;;;;;;5028456;28;20184;-68
2022/02/26 04:09:05;;;;;;;7.00;3.33;;;;;;;;;;5014680;28;20191;-67
2022/02/26 04:11:33;;;;;;;6.50;3.95;;;;;;;;;;5018304;28;20189;-67
2022/02/26 04:14:00;;;;;;;6.00;3.83;;;;;;;;;;5034270;28;20227;-67
2022/02/26 04:16:27;;;;;;;8.57;2.95;;;;;;;;;;5026016;28;20211;-68
2022/02/26 04:18:54;;;;;;;5.68;3.33;;;;;;;;;;5020080;28;20187;-68
2022/02/26 04:21:23;;;;;;;7.90;4.10;;;;;;;;;;5027115;28;20183;-67
2022/02/26 04:23:52;;;;;;;12.05;4.40;;;;;;;;;;5032827;28;20195;-67
2022/02/26 04:26:19;;;;;;;5.80;3.03;;;;;;;;;;5013854;28;20713;-67
2022/02/26 04:28:47;;;;;;;7.03;3.53;;;;;;;;;;5014174;28;20214;-74
2022/02/26 04:31:14;;;;;;;13.32;3.50;;;;;;;;;;5033444;28;20217;-68
2022/02/26 04:33:41;;;;;;;4.15;3.10;;;;;;;;;;5018893;28;20219;-68
2022/02/26 04:36:09;;;;;;;4.32;2.72;;;;;;;;;;5014135;28;20195;-68
2022/02/26 04:38:36;;;;;;;4.55;2.50;;;;;;;;;;5027201;28;20187;-68
2022/02/26 04:41:05;;;;;;;10.43;2.90;;;;;;;;;;5034054;28;20281;-68
2022/02/26 04:43:33;;;;;;;5.10;2.35;;;;;;;;;;5019793;28;20254;-68
2022/02/26 04:46:00;;;;;;;4.43;2.92;;;;;;;;;;5014075;28;20191;-67
2022/02/26 04:48:27;;;;;;;4.97;2.20;;;;;;;;;;5025316;28;20257;-68
2022/02/26 04:50:55;;;;;;;6.50;2.58;;;;;;;;;;5033391;28;20223;-68
2022/02/26 04:53:22;;;;;;;5.65;2.58;;;;;;;;;;5021730;28;20202;-68
2022/02/26 04:55:50;;;;;;;5.88;2.65;;;;;;;;;;5013844;28;20746;-68
2022/02/26 04:58:19;;;;;;;5.15;3.33;;;;;;;;;;5021963;28;20233;-68
2022/02/26 05:00:46;;;;;;;4.35;2.53;;;;;;;;;;5033105;28;20249;-68
2022/02/26 05:03:13;;;;;;;7.22;3.15;;;;;;;;;;5024409;28;20188;-68
2022/02/26 05:05:40;;;;;;;4.57;2.70;;;;;;;;;;5013589;28;20261;-68
2022/02/26 05:08:08;;;;;;;9.35;3.60;;;;;;;;;;5019957;28;20186;-68
2022/02/26 05:10:35;;;;;;;3.80;2.40;;;;;;;;;;5033480;28;20645;-68
2022/02/26 05:13:02;;;;;;;3.85;2.60;;;;;;;;;;5026572;28;20247;-67
2022/02/26 05:15:31;;;;;;;5.95;2.88;;;;;;;;;;5012955;28;20231;-68
2022/02/26 05:17:58;;;;;;;4.28;2.25;;;;;;;;;;5017330;28;20215;-69
2022/02/26 05:20:25;;;;;;;5.13;2.65;;;;;;;;;;5033072;28;20593;-68
2022/02/26 05:22:52;;;;;;;4.30;2.28;;;;;;;;;;5028340;28;20180;-68
2022/02/26 05:25:20;;;;;;;4.60;2.38;;;;;;;;;;5013322;28;20579;-68
2022/02/26 05:27:47;;;;;;;3.88;2.30;;;;;;;;;;5014534;28;20188;-70
2022/02/26 05:30:15;;;;;;;3.78;2.22;;;;;;;;;;5032742;28;20254;-67
2022/02/26 05:32:44;;;;;;;8.43;3.75;;;;;;;;;;5031109;28;20187;-68
2022/02/26 05:35:12;;;;;;;6.85;2.40;;;;;;;;;;5022859;28;20240;-68
2022/02/26 05:37:39;;;;;;;7.35;2.55;;;;;;;;;;5031767;28;20255;-72
2022/02/26 05:40:07;;;;;;;6.20;3.33;;;;;;;;;;5012437;28;20209;-68
2022/02/26 05:42:34;;;;;;;7.30;3.08;;;;;;;;;;5030286;28;20190;-68
2022/02/26 05:45:01;;;;;;;11.65;3.00;;;;;;;;;;5014020;28;20238;-67
2022/02/26 05:47:29;;;;;;;6.75;3.22;;;;;;;;;;5012790;28;20198;-67
2022/02/26 05:50:04;;;;;;;7.82;2.83;;;;;;;;;;5028451;28;20229;-68
2022/02/26 05:52:31;;;;;;;5.65;2.88;;;;;;;;;;5032657;28;20665;-67
2022/02/26 05:54:58;;;;;;;4.57;2.58;;;;;;;;;;5030258;28;20215;-68
2022/02/26 05:57:26;;;;;;;3.90;2.38;;;;;;;;;;5032648;28;20230;-67
2022/02/26 05:59:53;;;;;;;5.55;2.20;;;;;;;;;;5024470;28;20245;-68
2022/02/26 06:02:20;;;;;;;3.70;2.45;;;;;;;;;;5032438;28;20257;-67
2022/02/26 06:04:47;;;;;;;3.83;2.03;;;;;;;;;;5018878;28;20196;-68
2022/02/26 06:07:16;;;;;;;3.85;2.25;;;;;;;;;;5016108;28;20183;-68
2022/02/26 06:09:43;;;;;;;4.28;2.22;;;;;;;;;;5032570;28;20230;-68
2022/02/26 06:12:10;;;;;;;4.90;2.20;;;;;;;;;;5032970;28;20218;-69
2022/02/26 06:14:37;;;;;;;4.07;1.95;;;;;;;;;;5016677;28;20223;-68
2022/02/26 06:17:05;;;;;;;3.00;2.03;;;;;;;;;;5017102;28;20226;-68
2022/02/26 06:19:32;;;;;;;4.82;2.67;;;;;;;;;;5036452;28;20198;-68
2022/02/26 06:21:59;;;;;;;9.65;2.78;;;;;;;;;;5016700;28;20188;-69
2022/02/26 06:24:28;;;;;;;7.28;3.88;;;;;;;;;;5032214;28;20214;-68
2022/02/26 06:26:55;;;;;;;6.72;4.22;;;;;;;;;;5035986;28;20242;-68
2022/02/26 06:29:23;;;;;;;7.00;3.58;;;;;;;;;;5020147;28;20187;-68
2022/02/26 06:31:50;;;;;;;12.70;3.20;;;;;;;;;;5016162;28;20580;-68
2022/02/26 06:34:17;;;;;;;5.72;3.20;;;;;;;;;;5028853;28;20187;-68
2022/02/26 06:36:44;;;;;;;6.38;2.67;;;;;;;;;;5035878;28;20203;-68
2022/02/26 06:39:12;;;;;;;3.92;2.42;;;;;;;;;;5022923;28;20258;-68
2022/02/26 06:41:40;;;;;;;5.57;2.58;;;;;;;;;;5016215;28;20234;-68
2022/02/26 06:44:07;;;;;;;10.02;2.92;;;;;;;;;;5026371;28;20267;-68
2022/02/26 06:46:37;;;;;;;3.28;1.83;;;;;;;;;;5027434;28;20215;-67
2022/02/26 06:49:05;;;;;;;3.50;2.53;;;;;;;;;;5015551;28;20191;-67
2022/02/26 06:51:32;;;;;;;5.30;2.70;;;;;;;;;;5029690;28;21453;-67
2022/02/26 06:54:00;;;;;;;4.63;2.88;;;;;;;;;;5035639;28;20210;-68
2022/02/26 06:56:27;;;;;;;5.00;3.58;;;;;;;;;;5021776;28;20215;-68
2022/02/26 06:58:56;;;;;;;5.43;3.22;;;;;;;;;;5015687;28;20262;-68
2022/02/26 07:01:24;;;;;;;9.85;4.13;;;;;;;;;;5026837;28;20218;-67
2022/02/26 07:03:51;;;;;;;3.42;2.25;;;;;;;;;;5035484;28;20230;-69
2022/02/26 07:06:18;;;;;;;6.75;3.00;;;;;;;;;;5024300;28;20640;-68
2022/02/26 07:08:45;;;;;;;5.32;2.42;;;;;;;;;;5015730;28;20269;-68
2022/02/26 07:11:15;;;;;;;5.28;2.67;;;;;;;;;;5023879;28;20211;-68
2022/02/26 07:13:43;;;;;;;6.80;2.70;;;;;;;;;;5035512;28;20227;-70
2022/02/26 07:16:13;;;;;;;5.72;4.47;;;;;;;;;;5026184;28;20234;-68
2022/02/26 07:18:40;;;;;;;5.28;2.90;;;;;;;;;;5014993;28;20304;-68
2022/02/26 07:21:07;;;;;;;5.85;3.60;;;;;;;;;;5020965;28;20188;-68
2022/02/26 07:23:35;;;;;;;5.93;2.88;;;;;;;;;;5035180;28;20639;-68
2022/02/26 07:26:03;;;;;;;4.22;3.10;;;;;;;;;;5027910;28;20222;-67
2022/02/26 07:28:32;;;;;;;4.95;2.45;;;;;;;;;;5033062;28;20637;-68
2022/02/26 07:31:03;;;;;;;5.97;2.70;;;;;;;;;;5025235;28;20277;-67
2022/02/26 07:33:31;;;;;;;4.07;2.38;;;;;;;;;;5033506;28;20187;-71
2022/02/26 07:35:59;;;;;;;4.82;2.63;;;;;;;;;;5032754;28;20289;-70
2022/02/26 07:38:26;;;;;;;6.15;2.40;;;;;;;;;;5031870;28;20195;-68
2022/02/26 07:40:53;;;;;;;6.32;2.50;;;;;;;;;;5032817;28;20187;-68
2022/02/26 07:43:20;;;;;;;5.00;2.40;;;;;;;;;;5032086;28;20198;-68
2022/02/26 07:45:48;;;;;;;7.68;3.67;;;;;;;;;;5032552;28;20274;-69
2022/02/26 07:48:15;;;;;;;5.60;3.08;;;;;;;;;;5028211;28;20195;-67
2022/02/26 07:50:54;;;;;;;7.43;3.50;;;;;;;;;;5032523;28;20257;-68
2022/02/26 07:53:22;;;;;;;6.20;3.45;;;;;;;;;;5031665;28;20233;-68
2022/02/26 07:55:49;;;;;;;5.93;3.65;;;;;;;;;;5032679;28;20293;-68
2022/02/26 07:58:16;;;;;;;5.35;3.55;;;;;;;;;;5031638;28;20555;-68
2022/02/26 08:00:44;;;;;;;5.43;3.08;;;;;;;;;;5032640;28;20202;-68
2022/02/26 08:03:11;;;;;;;6.82;3.55;;;;;;;;;;5031579;28;20684;-68
2022/02/26 08:05:38;;;;;;;7.75;2.67;;;;;;;;;;5032510;28;20241;-75
2022/02/26 08:08:07;;;;;;;6.40;3.63;;;;;;;;;;5031773;28;20665;-68
2022/02/26 08:10:35;;;;;;;5.53;3.70;;;;;;;;;;5031971;28;20215;-68
2022/02/26 08:13:03;;;;;;;9.52;4.25;;;;;;;;;;5031061;28;20690;-68
2022/02/26 08:15:30;;;;;;;5.53;3.42;;;;;;;;;;5031087;28;20183;-67
2022/02/26 08:17:57;;;;;;;9.38;4.15;;;;;;;;;;5028715;28;20566;-68
2022/02/26 08:20:25;;;;;;;4.63;3.33;;;;;;;;;;5030782;28;20210;-68
2022/02/26 08:22:53;;;;;;;6.88;4.15;;;;;;;;;;5032185;28;20187;-68
2022/02/26 08:25:23;;;;;;;8.77;4.78;;;;;;;;;;5032025;28;20209;-67
2022/02/26 08:27:50;;;;;;;8.63;5.18;;;;;;;;;;5031785;28;20194;-69
2022/02/26 08:30:18;;;;;;;7.85;5.35;;;;;;;;;;5031676;28;20245;-68
2022/02/26 08:32:45;;;;;;;11.82;5.18;;;;;;;;;;5031512;28;20202;-68
2022/02/26 08:35:14;;;;;;;6.03;4.40;;;;;;;;;;5031021;28;20218;-68
2022/02/26 08:37:42;;;;;;;8.38;3.90;;;;;;;;;;5031744;28;20238;-68
2022/02/26 08:40:11;;;;;;;7.13;4.28;;;;;;;;;;5032547;28;20191;-68
2022/02/26 08:42:41;;;;;;;8.57;4.20;;;;;;;;;;5032456;28;20195;-68
2022/02/26 08:45:09;;;;;;;5.47;4.07;;;;;;;;;;5031400;28;20191;-69
2022/02/26 08:47:36;;;;;;;6.80;4.00;;;;;;;;;;5030849;28;20184;-68
2022/02/26 08:50:05;;;;;;;5.50;3.97;;;;;;;;;;5032110;28;20195;-68
2022/02/26 08:52:32;;;;;;;9.00;4.25;;;;;;;;;;5027454;28;20215;-68
2022/02/26 08:54:59;;;;;;;8.13;4.38;;;;;;;;;;5028105;28;20272;-68
2022/02/26 08:57:27;;;;;;;7.10;3.78;;;;;;;;;;5030279;28;20187;-69
2022/02/26 08:59:55;;;;;;;9.60;4.95;;;;;;;;;;5026927;28;20556;-68
2022/02/26 09:02:23;;;;;;;9.75;4.15;;;;;;;;;;5025583;28;20191;-70
2022/02/26 09:04:50;;;;;;;9.43;4.05;;;;;;;;;;5027000;28;20284;-68
2022/02/26 09:07:17;;;;;;;8.10;4.40;;;;;;;;;;5025894;28;20184;-68
2022/02/26 09:09:47;;;;;;;7.53;4.13;;;;;;;;;;5029272;28;20237;-68
2022/02/26 09:12:14;;;;;;;10.57;4.25;;;;;;;;;;5025108;28;20214;-68
2022/02/26 09:14:41;;;;;;;8.77;3.60;;;;;;;;;;5031129;28;20283;-68
2022/02/26 09:17:10;;;;;;;11.02;4.43;;;;;;;;;;5030839;28;20198;-68
2022/02/26 09:19:38;;;;;;;5.78;4.00;;;;;;;;;;5025751;28;20191;-68
2022/02/26 09:22:05;;;;;;;9.65;3.50;;;;;;;;;;5030791;28;20191;-68
2022/02/26 09:24:33;;;;;;;9.05;4.93;;;;;;;;;;5030221;28;20629;-68
2022/02/26 09:27:00;;;;;;;6.45;4.38;;;;;;;;;;5030364;28;20269;-68
2022/02/26 09:29:27;;;;;;;6.95;4.03;;;;;;;;;;5027300;28;20721;-69
2022/02/26 09:31:54;;;;;;;4.93;2.15;;;;;;;;;;5026765;28;20219;-68
2022/02/26 09:34:23;;;;;;;3.50;1.60;;;;;;;;;;5025792;28;20199;-68
2022/02/26 09:36:52;;;;;;;6.10;1.77;;;;;;;;;;5030644;28;20199;-68
2022/02/26 09:39:19;;;;;;;5.43;2.15;;;;;;;;;;5029228;28;20190;-68
2022/02/26 09:41:47;;;;;;;6.57;2.10;;;;;;;;;;5029780;28;20214;-67
2022/02/26 09:44:15;;;;;;;7.40;2.63;;;;;;;;;;5028720;28;20397;-68
2022/02/26 09:46:43;;;;;;;2.97;1.70;;;;;;;;;;5025478;28;20252;-68
2022/02/26 09:49:10;;;;;;;7.40;2.35;;;;;;;;;;5028334;28;20227;-69
2022/02/26 09:51:41;;;;;;;6.22;2.83;;;;;;;;;;5029388;28;20242;-67
2022/02/26 09:54:08;;;;;;;7.60;1.90;;;;;;;;;;5030392;28;20187;-69
2022/02/26 09:56:36;;;;;;;5.90;2.45;;;;;;;;;;5028486;28;20247;-67
2022/02/26 09:59:03;;;;;;;7.43;2.20;;;;;;;;;;5029419;28;20191;-67
2022/02/26 10:01:31;;;;;;;3.90;2.05;;;;;;;;;;5030004;28;20194;-68
2022/02/26 10:04:08;;;;;;;5.50;3.10;;;;;;;;;;5028930;28;20183;-68
2022/02/26 10:06:38;;;;;;;5.00;3.30;;;;;;;;;;5027415;28;20195;-67
2022/02/26 10:11:58;;;;;;;13.35;5.40;;;;;;;;;;5029121;28;20306;-67
2022/02/26 10:14:25;;;;;;;8.43;3.47;;;;;;;;;;5028498;28;20276;-68
2022/02/26 10:16:53;;;;;;;7.43;3.72;;;;;;;;;;5030013;28;20703;-67
2022/02/26 10:19:21;;;;;;;6.25;4.25;;;;;;;;;;5031200;28;20574;-67
2022/02/26 10:21:49;;;;;;;8.25;5.45;;;;;;;;;;5030080;28;20183;-68
2022/02/26 10:24:18;;;;;;;7.35;5.75;;;4.70;59.70;;;;;;5030091;28;20313;-68
2022/02/26 10:26:49;;;;;;;8.95;5.78;;;;;;;;;;5030347;28;20333;-70
2022/02/26 10:29:16;;;;;;;11.43;7.10;;;;;;;;;;5021140;28;20195;-68
2022/02/26 10:31:44;;;;;;;10.55;6.75;;;;;;;;;;5030125;28;20280;-68
2022/02/26 10:34:26;;;;;;;7.70;4.38;;;6.60;62.80;;;;;;5026443;28;20642;-70
2022/02/26 10:37:05;;;;;;;11.90;6.05;;;8.60;55.90;;;;;;5028776;28;20195;-70
2022/02/26 10:39:36;;;;;;;10.73;5.47;;;9.30;56.70;;;;;;5024532;28;20633;-69
2022/02/26 10:42:04;;;;;;;37.85;25.50;;;10.70;55.30;;;;;;5027968;28;20649;-68
2022/02/26 10:44:31;;;;;;;10.85;8.20;;;12.20;47.10;;;;;;5030508;28;20201;-68
2022/02/26 10:47:10;;;;;;;6.40;5.07;;;12.80;46.90;;;;;;5027799;28;20187;-68
2022/02/26 10:49:42;;;;;;;4.55;3.30;;;13.00;39.70;;;;;;5025944;28;20205;-68
2022/02/26 10:52:11;;;;;;;6.63;3.40;;;12.50;41.00;;;;;;5029091;28;20316;-68
2022/02/26 10:54:41;;;;;;;8.35;4.10;;;11.80;39.60;;;;;;5030418;28;20717;-68
2022/02/26 10:57:10;;;;;;;5.43;3.42;;;11.10;41.50;;;;;;5023750;28;20554;-68
2022/02/26 10:59:41;;;;;;;6.40;3.75;;;10.60;42.90;;;;;;5031165;28;20253;-68
2022/02/26 11:02:15;;;;;;;5.57;3.83;;;10.20;43.30;;;;;;5032962;28;20274;-70
2022/02/26 11:04:42;;;;;;;8.32;3.30;;;9.90;45.00;;;;;;5033627;28;20511;-69
2022/02/26 11:07:13;;;;;;;7.70;3.30;;;9.70;45.50;;;;;;5034149;28;20230;-68
2022/02/26 11:09:43;;;;;;;6.72;3.60;;;9.70;46.60;;;;;;5032922;28;20724;-70
2022/02/26 11:12:14;;;;;;;6.03;3.03;;;11.10;52.30;;;;;;5030576;28;20230;-69
2022/02/26 11:14:43;;;;;;;4.95;3.45;;;16.00;52.50;;;;;;5026778;28;20764;-69
2022/02/26 11:17:13;;;;;;;6.57;2.40;;;19.60;38.20;;;;;;5029705;28;20230;-69
2022/02/26 11:19:40;;;;;;;6.47;3.40;;;23.50;30.60;;;;;;5028469;28;20478;-70
2022/02/26 11:22:08;;;;;;;5.50;2.60;;;24.60;25.10;;;;;;5029475;28;20472;-70
2022/02/26 11:24:35;;;;;;;5.70;3.17;;;26.60;24.50;;;;;;5031222;28;20539;-69
2022/02/26 11:27:04;;;;;;;5.53;3.57;;;29.70;23.40;;;;;;5029704;28;20964;-71
2022/02/26 11:29:31;;;;;;;5.63;2.63;;;31.70;20.00;;;;;;5027022;28;20466;-67
2022/02/26 11:32:05;;;;;;;8.53;2.33;;;33.30;16.60;;;;;;5032944;28;20485;-67
2022/02/26 11:34:33;;;;;;;5.00;2.70;;;34.90;15.30;;;;;;5028144;28;20807;-69
2022/02/26 11:37:05;;;;;;;6.27;2.80;;;35.90;14.00;;;;;;5032055;28;20457;-68
2022/02/26 11:39:34;;;;;;;5.47;2.20;;;36.70;13.00;;;;;;5029018;28;20449;-68
2022/02/26 11:42:38;;;;;;;3.83;2.00;;;37.30;10.80;;;;;;5028195;28;20452;-68
2022/02/26 11:45:10;;;;;;;4.97;2.43;;;36.50;11.40;;;;;;5030443;28;20434;-68
2022/02/26 11:47:53;;;;;;;6.20;2.27;;;35.40;10.00;;;;;;5031359;28;20805;-69
2022/02/26 11:50:23;;;;;;;7.63;2.00;;;33.60;10.30;;;;;;5028218;28;20962;-68
2022/02/26 11:52:54;;;;;;;5.13;1.90;;;31.70;10.30;;;;;;5031931;28;20434;-70
2022/02/26 11:55:35;;;;;;;4.90;2.20;;;29.40;10.90;;;;;;5024240;28;20502;-67
2022/02/26 11:58:04;;;;;;;5.00;1.70;;;27.30;11.80;;;;;;5032608;28;20474;-70
2022/02/26 12:00:38;;;;;;;4.70;2.40;;;25.30;13.30;;;;;;5025972;28;20921;-67
2022/02/26 12:03:27;;;;;;;6.50;2.00;;;23.60;14.60;;;;;;5031536;28;20474;-66
2022/02/26 12:05:56;;;;;;;5.17;2.73;;;21.90;15.90;;;;;;5027263;28;20472;-66
2022/02/26 12:08:40;;;;;;;8.27;2.33;;;20.80;16.80;;;;;;5031462;28;20442;-67
2022/02/26 12:11:10;;;;;;;3.10;1.90;;;20.00;17.50;;;;;;5031201;28;20450;-67
2022/02/26 12:13:38;;;;;;;9.83;2.60;;;19.20;17.80;;;;;;5031582;28;20466;-68
2022/02/26 12:16:15;;;;;;;10.07;2.60;;;18.50;18.50;;;;;;5029622;28;20442;-69
2022/02/26 12:18:44;;;;;;;4.37;2.53;;;17.90;19.10;;;;;;5032617;28;20511;-69
2022/02/26 12:21:12;;;;;;;6.00;2.53;;;17.00;21.00;;;;;;5031395;28;20453;-69
2022/02/26 12:23:44;;;;;;;8.40;2.10;;;16.10;21.50;;;;;;5032365;28;20485;-70
2022/02/26 12:26:12;;;;;;;5.07;2.43;;;15.20;21.30;;;;;;5031478;28;20442;-69
2022/02/26 12:28:39;;;;;;;6.80;3.10;;;14.50;22.10;;;;;;5030039;28;20477;-69
2022/02/26 12:31:11;;;;;;;7.80;3.70;;;13.80;22.60;;;;;;5028135;28;20521;-70
2022/02/26 12:33:39;;;;;;;6.50;3.22;;;13.10;23.20;;;;;;5030690;28;20438;-69
2022/02/26 12:36:12;;;;;;;4.47;2.42;;;12.60;23.90;;;;;;5025698;28;20760;-73
2022/02/26 12:38:50;;;;;;;6.45;1.85;;;12.10;24.50;;;;;;5032021;28;20246;-68
2022/02/26 12:41:35;;;;;;;6.72;1.80;;;11.70;25.30;;;;;;5030198;28;20249;-69
2022/02/26 12:44:04;;;;;;;5.78;1.70;;;11.30;26.40;;;;;;5031384;28;20281;-68
2022/02/26 12:46:34;;;;;;;5.95;3.25;;;11.10;26.60;;;;;;5031426;28;20210;-68
2022/02/26 12:49:04;;;;;;;5.30;2.00;;;10.90;26.90;;;;;;5030906;28;20195;-68
2022/02/26 12:51:31;;;;;;;3.45;1.95;;;10.90;27.00;;;;;;5030614;28;20198;-68
2022/02/26 12:53:59;;;;;;;4.47;2.00;;;10.90;27.50;;;;;;5031239;28;20223;-69
2022/02/26 12:56:34;;;;;;;4.20;1.88;;;10.90;27.80;;;;;;5030555;28;20198;-69
2022/02/26 12:59:12;;;;;;;4.10;1.67;;;11.20;28.40;;;;;;5031592;28;20210;-68
2022/02/26 13:01:42;;;;;;;3.78;1.50;;;11.50;27.70;;;;;;5031358;28;20187;-69
2022/02/26 13:04:12;;;;;;;2.70;1.65;;;11.70;27.30;;;;;;5031291;28;20195;-68
2022/02/26 13:06:40;;;;;;;6.32;2.17;;;11.80;26.50;;;;;;5030796;28;20209;-70
2022/02/26 13:09:08;;;;;;;6.40;2.13;;;11.80;26.50;;;;;;5031100;28;20245;-68
2022/02/26 13:11:35;;;;;;;5.05;2.08;;;11.80;25.60;;;;;;5031273;28;20230;-74
2022/02/26 13:14:07;;;;;;;7.63;1.90;;;11.70;25.30;;;;;;5024565;28;20227;-69
2022/02/26 13:16:35;;;;;;;6.03;2.03;;;11.70;25.60;;;;;;5021718;28;20184;-68
2022/02/26 13:19:04;;;;;;;5.15;2.83;;;12.10;27.30;;;;;;5029760;28;20229;-69
2022/02/26 13:21:39;;;;;;;4.78;3.25;;;15.10;28.50;;;;;;5029415;28;20220;-70
2022/02/26 13:24:07;;;;;;;4.30;1.80;;;18.70;24.00;;;;;;5026916;28;20203;-70
2022/02/26 13:26:36;;;;;;;5.40;2.40;;;21.60;20.30;;;;;;5030095;28;20457;-69
2022/02/26 13:29:09;;;;;;;5.53;2.00;;;23.50;20.00;;;;;;5030337;28;20450;-69
2022/02/26 13:31:37;;;;;;;7.93;2.60;;;23.80;17.70;;;;;;5025716;28;20477;-76
2022/02/26 13:34:26;;;;;;;4.53;1.80;;;24.10;17.50;;;;;;5026884;28;20484;-69
2022/02/26 13:36:55;;;;;;;4.40;1.77;;;23.00;16.00;;;;;;5025390;28;20441;-69
2022/02/26 13:39:22;;;;;;;5.97;1.60;;;21.10;16.10;;;;;;5023159;28;20529;-69
2022/02/26 13:42:21;;;;;;;4.37;2.27;;;19.40;17.60;;;;;;5029890;28;20446;-69
2022/02/26 13:44:54;;;;;;;7.77;1.90;;;17.70;18.50;;;;;;5026287;28;20449;-69
2022/02/26 13:47:22;;;;;;;6.10;1.67;;;16.40;18.90;;;;;;5025912;28;21028;-69
2022/02/26 13:49:54;;;;;;;4.50;1.90;;;15.40;19.60;;;;;;5021140;28;20441;-69
2022/02/26 13:52:22;;;;;;;4.00;1.60;;;14.60;20.80;;;;;;5024976;28;21028;-69
2022/02/26 13:54:50;;;;;;;4.30;2.47;;;13.80;21.00;;;;;;5026555;28;20453;-68
2022/02/26 13:57:19;;;;;;;12.65;2.30;;;13.10;21.50;;;;;;5029113;28;20491;-69
2022/02/26 13:59:51;;;;;;;5.00;2.00;;;12.50;23.00;;;;;;5028267;28;20187;-71
2022/02/26 14:02:22;;;;;;;5.60;1.70;;;12.00;24.40;;;;;;5023552;28;20202;-69
2022/02/26 14:04:56;;;;;;;4.53;1.85;;;11.50;24.70;;;;;;5027126;28;20198;-68
2022/02/26 14:07:34;;;;;;;5.82;1.50;;;11.10;24.70;;;;;;5028831;28;20190;-69
2022/02/26 14:10:08;;;;;;;6.97;3.45;;;10.70;25.40;;;;;;5025066;28;20214;-69
2022/02/26 14:12:40;;;;;;;6.85;1.80;;;10.40;26.40;;;;;;5025686;28;20218;-69
2022/02/26 14:15:09;;;;;;;6.15;1.90;;;10.10;26.90;;;;;;5028698;28;20191;-68
2022/02/26 14:17:37;;;;;;;6.88;2.00;;;9.90;28.00;;;;;;5028556;28;20233;-73
2022/02/26 14:20:10;;;;;;;6.22;1.90;;;9.70;28.50;;;;;;5027702;28;20184;-70
2022/02/26 14:22:38;;;;;;;4.70;1.70;;;9.60;29.00;;;;;;5024474;28;20183;-68
2022/02/26 14:25:06;;;;;;;5.65;2.10;;;;;;;;;;5027941;28;20191;-70